METAR & TAF

RJAA 271500Z 06003KT 020V090 CAVOK 18/16 Q1012 NOSIG RMK A2990
RJAA 271430Z 09004KT CAVOK 18/16 Q1012 NOSIG RMK A2991
RJAA 271400Z 08003KT 050V130 CAVOK 18/16 Q1013 NOSIG RMK A2992
RJAA 271330Z 07005KT 9999 FEW020 BKN/// 18/16 Q1013 NOSIG RMK 1CU020 A2992
RJAA 271300Z 05005KT 350V080 9999 FEW015 BKN/// 18/16 Q1013 BECMG 08005KT RMK 1CU015 A2994
RJAA 271230Z 06005KT 9999 FEW015 BKN/// 18/16 Q1013 BECMG 08005KT
RJAA 271200Z 06005KT 9999 FEW015 BKN/// 18/16 Q1013 BECMG 08005KT RMK 2CU015 A2993
RJAA 271130Z 07005KT 9999 FEW015 BKN050 BKN100 18/16 Q1013 NOSIG RMK 2CU015 5SC050 6AC100 A2993
RJAA 271100Z 08007KT 9999 FEW015 BKN040 18/16 Q1013 NOSIG RMK 1CU015 7SC040 A2992
RJAA 271030Z 08009KT 9999 FEW015 BKN040 19/16 Q1012 NOSIG RMK 1CU015 6SC040 A2990

TAF RJAA 271105Z 2712/2818 10004KT 9999 FEW015 BKN030
  BECMG 2721/2723 22012KT
  BECMG 2812/2815 16004KT